KELZ/ELZ METAR and TAF weather

Enter ICAO airport designator
Station Type Date Time Source
KELZ METAR 2018/01/16 08:56 UTC NOAA

KELZ 160856Z AUTO 18004KT 2 1/2SM -SN BR OVC033 M07/M09 A3024 RMK AO2 SLP275 P0000 60001 T10671089 50000 $


Station Type Date Time Source
KELZ Decoded METAR 2018/01/16 08:56 UTC NOAA

WELLSVILLE MUNICIPAL AIRPORT, NY, United States (KELZ) 42-06N 077-60W 646M
Jan 16, 2018 - 03:56 AM EST / 2018.01.16 0856 UTC
Wind: from the S (180 degrees) at 5 MPH (4 KT):0
Visibility: 2 1/2 mile(s):0
Sky conditions: overcast
Weather: light snow; mist
Precipitation last hour: A trace
Temperature: 19.9 F (-6.7 C)
Windchill: 12 F (-11 C):1
Dew Point: 16.0 F (-8.9 C)
Relative Humidity: 84%
Pressure (altimeter): 30.24 in. Hg (1024 hPa)
Pressure tendency: 0.00 inches (0.0 hPa) higher than three hours ago
ob: KELZ 160856Z AUTO 18004KT 2 1/2SM -SN BR OVC033 M07/M09 A3024 RMK AO2 SLP275 P0000 60001 T10671089 50000
cycle: 9

Station Type Date Time Source
KELZ TAF UTC NOAA

Error!


Example: see airport list